Time,TemperatureF,DewpointF,PressureIn,WindDirection,WindDirectionDegrees,WindSpeedMPH,WindSpeedGustMPH,Humidity,HourlyPrecipIn,Conditions,Clouds,dailyrainin,SoftwareType,DateUTC
2013-07-21 00:09:00,66.7,66.0,29.88,SW,227,0.0,0.0,96,0.00,,,0.00,weatherlink.com 1.10,2013-07-21 04:09:00,
2013-07-21 00:24:00,66.6,66.0,29.87,SSW,203,0.0,2.0,96,0.00,,,0.00,weatherlink.com 1.10,2013-07-21 04:24:00,
2013-07-21 00:39:00,66.4,66.0,29.87,SSW,204,0.0,2.0,97,0.00,,,0.00,weatherlink.com 1.10,2013-07-21 04:39:00,
2013-07-21 00:54:00,66.5,66.0,29.88,SSW,195,1.0,2.0,97,0.00,,,0.00,weatherlink.com 1.10,2013-07-21 04:54:00,
2013-07-21 01:09:00,66.5,66.0,29.88,SSW,198,0.0,3.0,97,0.00,,,0.00,weatherlink.com 1.10,2013-07-21 05:09:00,
2013-07-21 01:24:00,66.4,66.0,29.88,South,188,0.0,4.0,97,0.00,,,0.00,weatherlink.com 1.10,2013-07-21 05:24:00,
2013-07-21 01:39:00,66.2,65.0,29.88,South,188,0.0,0.0,96,0.00,,,0.00,weatherlink.com 1.10,2013-07-21 05:39:00,
2013-07-21 01:54:00,65.9,65.0,29.88,South,188,0.0,1.0,96,0.01,,,0.01,weatherlink.com 1.10,2013-07-21 05:54:00,
2013-07-21 02:09:00,65.8,65.0,29.88,South,190,0.0,3.0,97,0.01,,,0.01,weatherlink.com 1.10,2013-07-21 06:09:00,
2013-07-21 02:24:00,65.7,65.0,29.88,South,185,0.0,1.0,97,0.01,,,0.01,weatherlink.com 1.10,2013-07-21 06:24:00,
2013-07-21 02:39:00,65.5,65.0,29.88,South,187,0.0,2.0,97,0.01,,,0.01,weatherlink.com 1.10,2013-07-21 06:39:00,
2013-07-21 02:54:00,65.3,64.0,29.87,South,188,1.0,2.0,96,0.00,,,0.01,weatherlink.com 1.10,2013-07-21 06:54:00,
2013-07-21 03:09:00,65.1,64.0,29.87,South,188,0.0,3.0,96,0.00,,,0.01,weatherlink.com 1.10,2013-07-21 07:09:00,
2013-07-21 03:24:00,64.9,64.0,29.87,South,188,0.0,0.0,96,0.00,,,0.01,weatherlink.com 1.10,2013-07-21 07:24:00,
2013-07-21 03:39:00,64.6,64.0,29.88,South,188,0.0,1.0,97,0.00,,,0.01,weatherlink.com 1.10,2013-07-21 07:39:00,
2013-07-21 03:54:00,64.5,64.0,29.88,South,184,0.0,1.0,97,0.00,,,0.01,weatherlink.com 1.10,2013-07-21 07:54:00,
2013-07-21 04:09:00,64.4,64.0,29.89,South,184,0.0,0.0,97,0.00,,,0.01,weatherlink.com 1.10,2013-07-21 08:09:00,
2013-07-21 04:24:00,64.5,64.0,29.89,South,184,0.0,3.0,97,0.00,,,0.01,weatherlink.com 1.10,2013-07-21 08:24:00,
2013-07-21 04:39:00,64.5,64.0,29.89,South,184,0.0,2.0,97,0.00,,,0.01,weatherlink.com 1.10,2013-07-21 08:39:00,
2013-07-21 04:54:00,64.4,64.0,29.89,South,184,0.0,1.0,97,0.00,,,0.01,weatherlink.com 1.10,2013-07-21 08:54:00,
2013-07-21 05:09:00,64.2,63.0,29.89,South,184,0.0,1.0,97,0.00,,,0.01,weatherlink.com 1.10,2013-07-21 09:09:00,
2013-07-21 05:24:00,64.0,63.0,29.90,South,184,0.0,0.0,97,0.00,,,0.01,weatherlink.com 1.10,2013-07-21 09:24:00,
2013-07-21 05:39:00,63.8,63.0,29.90,South,184,0.0,0.0,97,0.00,,,0.01,weatherlink.com 1.10,2013-07-21 09:39:00,
2013-07-21 05:54:00,63.7,63.0,29.91,South,184,0.0,0.0,97,0.00,,,0.01,weatherlink.com 1.10,2013-07-21 09:54:00,
2013-07-21 06:09:00,63.6,63.0,29.91,South,184,0.0,1.0,97,0.00,,,0.01,weatherlink.com 1.10,2013-07-21 10:09:00,
2013-07-21 06:24:00,63.4,63.0,29.91,South,184,0.0,0.0,97,0.00,,,0.01,weatherlink.com 1.10,2013-07-21 10:24:00,
2013-07-21 06:39:00,63.6,63.0,29.91,South,184,0.0,0.0,97,0.00,,,0.01,weatherlink.com 1.10,2013-07-21 10:39:00,
2013-07-21 06:54:00,63.8,63.0,29.91,South,184,0.0,0.0,98,0.00,,,0.01,weatherlink.com 1.10,2013-07-21 10:54:00,
2013-07-21 07:09:00,64.2,64.0,29.91,South,184,0.0,2.0,98,0.00,,,0.01,weatherlink.com 1.10,2013-07-21 11:09:00,
2013-07-21 07:24:00,64.8,64.0,29.91,South,184,0.0,1.0,98,0.00,,,0.01,weatherlink.com 1.10,2013-07-21 11:24:00,
2013-07-21 07:39:00,65.4,65.0,29.91,South,184,0.0,1.0,98,0.00,,,0.01,weatherlink.com 1.10,2013-07-21 11:39:00,
2013-07-21 07:54:00,65.8,65.0,29.92,South,184,0.0,1.0,97,0.00,,,0.01,weatherlink.com 1.10,2013-07-21 11:54:00,
2013-07-21 08:09:00,66.3,66.0,29.93,South,184,0.0,2.0,97,0.00,,,0.01,weatherlink.com 1.10,2013-07-21 12:09:00,
2013-07-21 08:24:00,67.1,66.0,29.93,South,183,0.0,3.0,97,0.00,,,0.01,weatherlink.com 1.10,2013-07-21 12:24:00,
2013-07-21 08:40:00,68.1,67.0,29.92,SSE,165,1.0,3.0,97,0.00,,,0.01,weatherlink.com 1.10,2013-07-21 12:40:00,
2013-07-21 08:55:00,69.9,68.0,29.92,ESE,121,1.0,3.0,93,0.00,,,0.01,weatherlink.com 1.10,2013-07-21 12:55:00,
2013-07-21 09:10:00,72.2,68.0,29.92,East,90,0.0,6.0,87,0.00,,,0.01,weatherlink.com 1.10,2013-07-21 13:10:00,
2013-07-21 09:25:00,74.0,69.0,29.92,ENE,68,3.0,4.0,84,0.00,,,0.01,weatherlink.com 1.10,2013-07-21 13:25:00,
2013-07-21 09:40:00,75.3,68.0,29.93,NE,53,2.0,4.0,79,0.00,,,0.01,weatherlink.com 1.10,2013-07-21 13:40:00,
2013-07-21 09:55:00,76.2,69.0,29.93,NE,39,0.0,4.0,77,0.00,,,0.01,weatherlink.com 1.10,2013-07-21 13:55:00,
2013-07-21 10:10:00,77.6,69.0,29.93,ESE,105,0.0,3.0,74,0.00,,,0.01,weatherlink.com 1.10,2013-07-21 14:10:00,
2013-07-21 10:25:00,78.8,67.0,29.93,NE,47,0.0,4.0,68,0.00,,,0.01,weatherlink.com 1.10,2013-07-21 14:25:00,
2013-07-21 10:40:00,78.6,68.0,29.93,NE,36,3.0,5.0,70,0.00,,,0.01,weatherlink.com 1.10,2013-07-21 14:40:00,
2013-07-21 10:55:00,78.3,67.0,29.94,WNW,292,0.0,4.0,68,0.00,,,0.01,weatherlink.com 1.10,2013-07-21 14:55:00,
2013-07-21 11:10:00,79.1,68.0,29.94,NE,46,3.0,5.0,68,0.00,,,0.01,weatherlink.com 1.10,2013-07-21 15:10:00,
2013-07-21 11:25:00,79.5,68.0,29.94,WNW,297,3.0,5.0,67,0.00,,,0.01,weatherlink.com 1.10,2013-07-21 15:25:00,
2013-07-21 11:40:00,79.1,67.0,29.94,North,355,4.0,7.0,67,0.00,,,0.01,weatherlink.com 1.10,2013-07-21 15:40:00,
2013-07-21 11:55:00,79.8,68.0,29.94,NNE,16,3.0,8.0,67,0.00,,,0.01,weatherlink.com 1.10,2013-07-21 15:55:00,
2013-07-21 12:10:00,79.5,67.0,29.94,North,5,3.0,8.0,65,0.00,,,0.01,weatherlink.com 1.10,2013-07-21 16:10:00,
2013-07-21 12:25:00,79.6,67.0,29.94,NNW,333,4.0,8.0,65,0.00,,,0.01,weatherlink.com 1.10,2013-07-21 16:25:00,
2013-07-21 12:40:00,79.2,67.0,29.94,North,355,3.0,8.0,66,0.00,,,0.01,weatherlink.com 1.10,2013-07-21 16:40:00,
2013-07-21 12:55:00,80.0,68.0,29.94,NE,55,4.0,7.0,67,0.00,,,0.01,weatherlink.com 1.10,2013-07-21 16:55:00,
2013-07-21 13:10:00,80.8,67.0,29.94,NNE,18,4.0,9.0,64,0.00,,,0.01,weatherlink.com 1.10,2013-07-21 17:10:00,
2013-07-21 13:25:00,80.6,68.0,29.94,NE,46,5.0,7.0,66,0.00,,,0.01,weatherlink.com 1.10,2013-07-21 17:25:00,
2013-07-21 13:40:00,79.3,68.0,29.93,NNE,20,5.0,8.0,68,0.00,,,0.01,weatherlink.com 1.10,2013-07-21 17:40:00,
2013-07-21 13:55:00,79.7,67.0,29.93,ENE,57,4.0,7.0,66,0.00,,,0.01,weatherlink.com 1.10,2013-07-21 17:55:00,
2013-07-21 14:10:00,79.6,67.0,29.93,NE,52,6.0,9.0,65,0.00,,,0.01,weatherlink.com 1.10,2013-07-21 18:10:00,
2013-07-21 14:25:00,80.2,66.0,29.93,NNW,337,3.0,9.0,62,0.00,,,0.01,weatherlink.com 1.10,2013-07-21 18:25:00,
2013-07-21 14:40:00,78.8,66.0,29.93,NE,51,6.0,10.0,65,0.00,,,0.01,weatherlink.com 1.10,2013-07-21 18:40:00,
2013-07-21 14:55:00,79.4,66.0,29.93,NNE,23,4.0,8.0,63,0.00,,,0.01,weatherlink.com 1.10,2013-07-21 18:55:00,
2013-07-21 15:10:00,79.6,66.0,29.92,ENE,59,5.0,8.0,64,0.00,,,0.01,weatherlink.com 1.10,2013-07-21 19:10:00,
2013-07-21 15:25:00,79.0,66.0,29.92,NW,321,7.0,10.0,64,0.00,,,0.01,weatherlink.com 1.10,2013-07-21 19:25:00,
2013-07-21 15:40:00,78.2,66.0,29.92,NE,54,7.0,10.0,66,0.00,,,0.01,weatherlink.com 1.10,2013-07-21 19:40:00,
2013-07-21 15:55:00,77.9,67.0,29.92,NE,49,2.0,10.0,69,0.00,,,0.01,weatherlink.com 1.10,2013-07-21 19:55:00,
2013-07-21 16:10:00,77.8,66.0,29.92,ENE,57,4.0,8.0,68,0.00,,,0.01,weatherlink.com 1.10,2013-07-21 20:10:00,
2013-07-21 16:25:00,77.7,66.0,29.92,North,360,5.0,10.0,67,0.00,,,0.01,weatherlink.com 1.10,2013-07-21 20:25:00,
2013-07-21 16:40:00,77.8,66.0,29.92,NNE,25,9.0,10.0,67,0.00,,,0.01,weatherlink.com 1.10,2013-07-21 20:40:00,
2013-07-21 16:55:00,77.3,66.0,29.92,NNE,31,7.0,11.0,68,0.00,,,0.01,weatherlink.com 1.10,2013-07-21 20:55:00,
2013-07-21 17:10:00,76.7,64.0,29.91,North,10,5.0,13.0,65,0.00,,,0.01,weatherlink.com 1.10,2013-07-21 21:10:00,
2013-07-21 17:25:00,76.3,65.0,29.91,NNE,27,4.0,11.0,67,0.00,,,0.01,weatherlink.com 1.10,2013-07-21 21:25:00,
2013-07-21 17:40:00,76.7,65.0,29.92,North,355,2.0,10.0,67,0.00,,,0.01,weatherlink.com 1.10,2013-07-21 21:40:00,
2013-07-21 17:55:00,77.1,64.0,29.91,ENE,59,4.0,8.0,65,0.00,,,0.01,weatherlink.com 1.10,2013-07-21 21:55:00,
2013-07-21 18:10:00,76.1,63.0,29.91,ENE,61,5.0,10.0,64,0.00,,,0.01,weatherlink.com 1.10,2013-07-21 22:10:00,
2013-07-21 18:25:00,76.0,62.0,29.90,NE,52,5.0,10.0,63,0.00,,,0.01,weatherlink.com 1.10,2013-07-21 22:25:00,
2013-07-21 18:40:00,76.3,63.0,29.91,NE,40,4.0,8.0,63,0.00,,,0.01,weatherlink.com 1.10,2013-07-21 22:40:00,
2013-07-21 18:55:00,76.0,63.0,29.90,ENE,62,3.0,6.0,64,0.00,,,0.01,weatherlink.com 1.10,2013-07-21 22:55:00,
2013-07-21 19:10:00,76.1,63.0,29.91,NNE,28,1.0,4.0,65,0.00,,,0.01,weatherlink.com 1.10,2013-07-21 23:10:00,
2013-07-21 19:25:00,75.9,63.0,29.91,NE,53,2.0,3.0,65,0.00,,,0.01,weatherlink.com 1.10,2013-07-21 23:25:00,
2013-07-21 19:40:00,75.3,63.0,29.91,NNE,32,2.0,5.0,65,0.00,,,0.01,weatherlink.com 1.10,2013-07-21 23:40:00,
2013-07-21 19:55:00,75.1,63.0,29.91,NE,36,3.0,5.0,66,0.00,,,0.01,weatherlink.com 1.10,2013-07-21 23:55:00,
2013-07-21 20:10:00,74.4,63.0,29.90,NNE,26,1.0,4.0,67,0.00,,,0.01,weatherlink.com 1.10,2013-07-22 00:10:00,
2013-07-21 20:25:00,73.7,63.0,29.90,NNE,27,0.0,2.0,69,0.00,,,0.01,weatherlink.com 1.10,2013-07-22 00:25:00,
2013-07-21 20:40:00,73.0,63.0,29.90,NNE,27,0.0,1.0,72,0.00,,,0.01,weatherlink.com 1.10,2013-07-22 00:40:00,
2013-07-21 20:55:00,72.2,63.0,29.90,NNE,26,0.0,3.0,73,0.00,,,0.01,weatherlink.com 1.10,2013-07-22 00:55:00,
2013-07-21 21:10:00,71.3,65.0,29.91,NNE,26,0.0,0.0,79,0.00,,,0.01,weatherlink.com 1.10,2013-07-22 01:10:00,
2013-07-21 21:25:00,70.4,65.0,29.91,NNE,26,0.0,0.0,83,0.00,,,0.01,weatherlink.com 1.10,2013-07-22 01:25:00,
2013-07-21 21:40:00,69.4,65.0,29.92,NNE,26,0.0,0.0,86,0.00,,,0.01,weatherlink.com 1.10,2013-07-22 01:40:00,
2013-07-21 21:55:00,68.5,65.0,29.93,NNE,26,0.0,0.0,88,0.00,,,0.01,weatherlink.com 1.10,2013-07-22 01:55:00,
2013-07-21 22:10:00,67.6,65.0,29.93,NNE,26,0.0,1.0,90,0.00,,,0.01,weatherlink.com 1.10,2013-07-22 02:10:00,
2013-07-21 22:25:00,67.1,64.0,29.94,NNE,26,0.0,0.0,90,0.00,,,0.01,weatherlink.com 1.10,2013-07-22 02:25:00,
2013-07-21 22:40:00,66.4,64.0,29.94,NNE,26,0.0,0.0,92,0.00,,,0.01,weatherlink.com 1.10,2013-07-22 02:40:00,
2013-07-21 22:55:00,65.9,64.0,29.93,NNE,26,0.0,1.0,93,0.00,,,0.01,weatherlink.com 1.10,2013-07-22 02:55:00,
2013-07-21 23:10:00,65.5,64.0,29.93,NNE,26,0.0,0.0,94,0.00,,,0.01,weatherlink.com 1.10,2013-07-22 03:10:00,
2013-07-21 23:25:00,65.1,63.0,29.93,NNE,26,0.0,1.0,94,0.00,,,0.01,weatherlink.com 1.10,2013-07-22 03:25:00,
2013-07-21 23:40:00,64.8,63.0,29.93,NNE,26,0.0,0.0,94,0.00,,,0.01,weatherlink.com 1.10,2013-07-22 03:40:00,
2013-07-21 23:55:00,64.4,63.0,29.93,NNE,26,0.0,0.0,95,0.00,,,0.01,weatherlink.com 1.10,2013-07-22 03:55:00,